Jj Sky — VRJA6 — position and weather

sailwx.info

Track history (hours):
 
Tides and Currents Weather Stations Pressure Air Temp Water Temp Dewpoint Dewpoint Depression Visibility Wind Speed Wind Dir Waves Ship Positions

Jj Sky

Last reported at 2017-Feb-27 06:09 UTC. Time now 2017-Feb-27 07:05 UTC.
Position N 34°39' E 135°24'.

Length 148 m; draft 7.2 m.

Type: Ship (hazmat cat D). MMSI: 477397500.

Date/timePositionNaut miles runAvg speedWind from/ knotsBaromVisibWave heightAir tempDewpointWater temp
2017-Feb-27 06:09N 34°39' E 135°24'0 0.0
2017-Feb-27 05:33N 34°39' E 135°24'0 0.0
2017-Feb-27 04:29N 34°39' E 135°24'0 0.1
2017-Feb-27 03:29N 34°39' E 135°24'0 0.1
2017-Feb-27 02:28N 34°39' E 135°24'0 0.0
2017-Feb-27 01:28N 34°39' E 135°24'0 0.0
2017-Feb-27 00:31N 34°39' E 135°24'0 0.0
2017-Feb-26 23:08N 34°39' E 135°24'0 0.0
2017-Feb-26 22:32N 34°39' E 135°24'2 1.7
2017-Feb-26 21:33N 34°38' E 135°23'1313.1
2017-Feb-26 20:33N 34°29' E 135°11'1212.1
2017-Feb-26 19:33N 34°20' E 135°01'1212.4
2017-Feb-26 18:33N 34°08' E 134°57'  
2017-Feb-24 03:33N 31°20' E 121°40'  
2017-Feb-21 04:32N 34°36' E 134°55'1414.5
2017-Feb-21 03:33N 34°37' E 135°12'4 2.6
2017-Feb-21 02:12N 34°39' E 135°15'0 0.0
2017-Feb-21 01:29N 34°39' E 135°15'0 0.0
2017-Feb-21 00:29N 34°39' E 135°15'0 0.0
2017-Feb-20 23:32N 34°39' E 135°15'0 0.0
2017-Feb-20 22:28N 34°39' E 135°15'4 3.9
2017-Feb-20 21:33N 34°38' E 135°19'5 4.3
2017-Feb-20 20:28N 34°39' E 135°24'0 0.0
2017-Feb-20 19:15N 34°39' E 135°24'0 0.0
2017-Feb-20 18:27N 34°39' E 135°24'0 0.0
2017-Feb-20 17:33N 34°39' E 135°24'0 0.0
2017-Feb-20 16:32N 34°39' E 135°24'0 0.0
2017-Feb-20 15:32N 34°39' E 135°24'0 0.0
2017-Feb-20 14:31N 34°39' E 135°24'0 0.1
2017-Feb-20 13:31N 34°39' E 135°24'0 0.1
2017-Feb-20 12:30N 34°39' E 135°24'0 0.0
2017-Feb-20 11:28N 34°39' E 135°24'0 0.0
2017-Feb-20 10:16N 34°39' E 135°24'0 0.0
2017-Feb-20 09:33N 34°39' E 135°24'0 0.0
2017-Feb-20 08:21N 34°39' E 135°24'0 0.0
2017-Feb-20 07:14N 34°39' E 135°24'0 0.0
2017-Feb-20 06:26N 34°39' E 135°24'0 0.0
2017-Feb-20 05:26N 34°39' E 135°24'0 0.0
2017-Feb-20 04:31N 34°39' E 135°24'0 0.0
2017-Feb-20 03:13N 34°39' E 135°24'0 0.0
2017-Feb-20 02:06N 34°39' E 135°24'0 0.0
2017-Feb-20 01:30N 34°39' E 135°24'0 0.0
2017-Feb-20 00:25N 34°39' E 135°24'0 0.0
2017-Feb-19 23:31N 34°39' E 135°24'0 0.0
2017-Feb-19 22:31N 34°39' E 135°24'1 1.3
2017-Feb-19 21:33N 34°38' E 135°23'1111.0
2017-Feb-19 20:33N 34°35' E 135°10'10 9.6
2017-Feb-19 19:33N 34°37' E 134°59'1010.3
2017-Feb-19 18:33N 34°33' E 134°48'66214.0
2017-Feb-17 19:15N 31°01' E 122°21'1013.6
2017-Feb-17 18:31N 31°03' E 122°10'1010.5
2017-Feb-17 17:32N 31°06' E 121°58'1313.1
2017-Feb-17 16:33N 31°14' E 121°47'8 7.6
2017-Feb-17 15:32N 31°20' E 121°40'0 0.0
2017-Feb-17 14:31N 31°20' E 121°40'0 0.1
2017-Feb-17 13:28N 31°20' E 121°40'0 0.0
2017-Feb-17 12:28N 31°20' E 121°40'0 0.0
2017-Feb-17 11:33N 31°20' E 121°40'0 0.0
2017-Feb-17 10:33N 31°20' E 121°40'0 0.1
2017-Feb-17 09:29N 31°20' E 121°40'0 0.0
2017-Feb-17 08:32N 31°20' E 121°40'0 0.0
2017-Feb-17 07:31N 31°20' E 121°40'0 0.3
2017-Feb-17 06:34N 31°20' E 121°40'  
Track history (hours):
 
Tides and Currents Weather Stations Pressure Air Temp Water Temp Dewpoint Dewpoint Depression Visibility Wind Speed Wind Dir Waves Ship Positions

Jj Sky

Last reported at 2017-Feb-27 06:09 UTC. Time now 2017-Feb-27 07:05 UTC.
Position N 34°39' E 135°24'.

Length 148 m; draft 7.2 m.

Type: Ship (hazmat cat D). MMSI: 477397500.

Date/timePositionNaut miles runAvg speedWind from/ knotsBaromVisibWave heightAir tempDewpointWater temp
2017-Feb-27 06:09N 34°39' E 135°24'0 0.0
2017-Feb-27 05:33N 34°39' E 135°24'0 0.0
2017-Feb-27 04:29N 34°39' E 135°24'0 0.1
2017-Feb-27 03:29N 34°39' E 135°24'0 0.1
2017-Feb-27 02:28N 34°39' E 135°24'0 0.0
2017-Feb-27 01:28N 34°39' E 135°24'0 0.0
2017-Feb-27 00:31N 34°39' E 135°24'0 0.0
2017-Feb-26 23:08N 34°39' E 135°24'0 0.0
2017-Feb-26 22:32N 34°39' E 135°24'2 1.7
2017-Feb-26 21:33N 34°38' E 135°23'1313.1
2017-Feb-26 20:33N 34°29' E 135°11'1212.1
2017-Feb-26 19:33N 34°20' E 135°01'1212.4
2017-Feb-26 18:33N 34°08' E 134°57'  
2017-Feb-24 03:33N 31°20' E 121°40'  
2017-Feb-21 04:32N 34°36' E 134°55'1414.5
2017-Feb-21 03:33N 34°37' E 135°12'4 2.6
2017-Feb-21 02:12N 34°39' E 135°15'0 0.0
2017-Feb-21 01:29N 34°39' E 135°15'0 0.0
2017-Feb-21 00:29N 34°39' E 135°15'0 0.0
2017-Feb-20 23:32N 34°39' E 135°15'0 0.0
2017-Feb-20 22:28N 34°39' E 135°15'4 3.9
2017-Feb-20 21:33N 34°38' E 135°19'5 4.3
2017-Feb-20 20:28N 34°39' E 135°24'0 0.0
2017-Feb-20 19:15N 34°39' E 135°24'0 0.0
2017-Feb-20 18:27N 34°39' E 135°24'0 0.0
2017-Feb-20 17:33N 34°39' E 135°24'0 0.0
2017-Feb-20 16:32N 34°39' E 135°24'0 0.0
2017-Feb-20 15:32N 34°39' E 135°24'0 0.0
2017-Feb-20 14:31N 34°39' E 135°24'0 0.1
2017-Feb-20 13:31N 34°39' E 135°24'0 0.1
2017-Feb-20 12:30N 34°39' E 135°24'0 0.0
2017-Feb-20 11:28N 34°39' E 135°24'0 0.0
2017-Feb-20 10:16N 34°39' E 135°24'0 0.0
2017-Feb-20 09:33N 34°39' E 135°24'0 0.0
2017-Feb-20 08:21N 34°39' E 135°24'0 0.0
2017-Feb-20 07:14N 34°39' E 135°24'0 0.0
2017-Feb-20 06:26N 34°39' E 135°24'0 0.0
2017-Feb-20 05:26N 34°39' E 135°24'0 0.0
2017-Feb-20 04:31N 34°39' E 135°24'0 0.0
2017-Feb-20 03:13N 34°39' E 135°24'0 0.0
2017-Feb-20 02:06N 34°39' E 135°24'0 0.0
2017-Feb-20 01:30N 34°39' E 135°24'0 0.0
2017-Feb-20 00:25N 34°39' E 135°24'0 0.0
2017-Feb-19 23:31N 34°39' E 135°24'0 0.0
2017-Feb-19 22:31N 34°39' E 135°24'1 1.3
2017-Feb-19 21:33N 34°38' E 135°23'1111.0
2017-Feb-19 20:33N 34°35' E 135°10'10 9.6
2017-Feb-19 19:33N 34°37' E 134°59'1010.3
2017-Feb-19 18:33N 34°33' E 134°48'66214.0
2017-Feb-17 19:15N 31°01' E 122°21'1013.6
2017-Feb-17 18:31N 31°03' E 122°10'1010.5
2017-Feb-17 17:32N 31°06' E 121°58'1313.1
2017-Feb-17 16:33N 31°14' E 121°47'8 7.6
2017-Feb-17 15:32N 31°20' E 121°40'0 0.0
2017-Feb-17 14:31N 31°20' E 121°40'0 0.1
2017-Feb-17 13:28N 31°20' E 121°40'0 0.0
2017-Feb-17 12:28N 31°20' E 121°40'0 0.0
2017-Feb-17 11:33N 31°20' E 121°40'0 0.0
2017-Feb-17 10:33N 31°20' E 121°40'0 0.1
2017-Feb-17 09:29N 31°20' E 121°40'0 0.0
2017-Feb-17 08:32N 31°20' E 121°40'0 0.0
2017-Feb-17 07:31N 31°20' E 121°40'0 0.3
2017-Feb-17 06:34N 31°20' E 121°40'  

Dump ship's entire track history